createdAt,value
2019-02-02T00:01:26.009Z,0.40
2019-02-02T00:04:03.227Z,0.40
2019-02-02T00:06:34.357Z,0.50
2019-02-02T00:09:13.434Z,0.50
2019-02-02T00:11:43.540Z,0.50
2019-02-02T00:14:21.125Z,0.50
2019-02-02T00:16:55.540Z,0.50
2019-02-02T00:19:24.002Z,0.50
2019-02-02T00:21:54.067Z,0.60
2019-02-02T00:24:24.471Z,0.60
2019-02-02T00:26:59.049Z,0.60
2019-02-02T00:29:27.776Z,0.60
2019-02-02T00:32:00.198Z,0.60
2019-02-02T00:34:28.937Z,0.60
2019-02-02T00:37:00.334Z,0.70
2019-02-02T00:39:29.103Z,0.70
2019-02-02T00:42:03.453Z,0.70
2019-02-02T00:44:31.875Z,0.70
2019-02-02T00:47:01.999Z,0.60
2019-02-02T00:49:30.429Z,0.60
2019-02-02T00:51:59.251Z,0.60
2019-02-02T00:54:30.582Z,0.60
2019-02-02T00:56:59.284Z,0.50
2019-02-02T00:59:29.349Z,0.50
2019-02-02T01:02:00.485Z,0.50
2019-02-02T01:04:31.629Z,0.50
2019-02-02T01:07:02.677Z,0.50
2019-02-02T01:09:43.086Z,0.50
2019-02-02T01:12:11.769Z,0.50
2019-02-02T01:14:40.186Z,0.60
2019-02-02T01:17:12.129Z,0.60
2019-02-02T01:19:46.246Z,0.60
2019-02-02T01:22:14.741Z,0.60
2019-02-02T01:24:52.010Z,0.60
2019-02-02T01:28:05.422Z,0.60
2019-02-02T01:30:35.826Z,0.70
2019-02-02T01:33:10.834Z,0.70
2019-02-02T01:35:42.606Z,0.70
2019-02-02T01:38:12.760Z,0.70
2019-02-02T01:40:49.657Z,0.80
2019-02-02T01:43:18.084Z,0.80
2019-02-02T01:45:47.485Z,0.80
2019-02-02T01:48:17.557Z,0.80
2019-02-02T01:50:47.617Z,0.80
2019-02-02T01:53:26.799Z,0.80
2019-02-02T01:55:55.218Z,0.80
2019-02-02T01:58:26.337Z,0.80
2019-02-02T02:00:56.397Z,0.80
2019-02-02T02:03:24.825Z,0.70
2019-02-02T02:05:56.058Z,0.70
2019-02-02T02:08:45.886Z,0.70
2019-02-02T02:11:17.270Z,0.60
2019-02-02T02:13:47.333Z,0.60
2019-02-02T02:16:18.760Z,0.60
2019-02-02T02:18:48.818Z,0.70
2019-02-02T02:21:24.558Z,0.70
2019-02-02T02:23:52.997Z,0.70
2019-02-02T02:26:21.400Z,0.70
2019-02-02T02:28:50.105Z,0.70
2019-02-02T02:31:23.261Z,0.60
2019-02-02T02:33:51.690Z,0.60
2019-02-02T02:36:29.054Z,0.60
2019-02-02T02:39:00.666Z,0.60
2019-02-02T02:41:31.886Z,0.60
2019-02-02T02:44:03.263Z,0.70
2019-02-02T02:46:37.060Z,0.70
2019-02-02T02:49:08.073Z,0.70
2019-02-02T02:51:36.484Z,0.80
2019-02-02T02:54:05.569Z,0.80
2019-02-02T02:56:40.242Z,0.90
2019-02-02T02:59:07.994Z,0.90
2019-02-02T03:01:36.420Z,0.80
2019-02-02T03:04:05.211Z,0.90
2019-02-02T03:06:34.137Z,0.90
2019-02-02T03:09:08.956Z,0.90
2019-02-02T03:11:37.382Z,0.90
2019-02-02T03:14:08.513Z,0.80
2019-02-02T03:16:36.969Z,0.80
2019-02-02T03:19:05.474Z,0.80
2019-02-02T03:21:34.222Z,0.80
2019-02-02T03:24:02.649Z,0.80
2019-02-02T03:26:31.110Z,0.90
2019-02-02T03:28:59.534Z,0.90
2019-02-02T03:31:28.221Z,0.90
2019-02-02T03:33:56.642Z,0.90
2019-02-02T03:36:25.073Z,0.90
2019-02-02T03:38:53.742Z,0.90
2019-02-02T03:41:22.171Z,0.90
2019-02-02T03:43:50.594Z,0.90
2019-02-02T03:46:19.031Z,0.90
2019-02-02T03:48:47.455Z,0.90
2019-02-02T03:51:21.945Z,0.90
2019-02-02T03:53:50.369Z,0.90
2019-02-02T03:56:18.802Z,0.90
2019-02-02T03:58:47.275Z,0.90
2019-02-02T04:01:15.983Z,0.90
2019-02-02T04:03:44.491Z,0.90
2019-02-02T04:06:12.921Z,0.90
2019-02-02T04:08:41.361Z,0.90
2019-02-02T04:11:10.028Z,0.90
2019-02-02T04:13:38.474Z,0.80
2019-02-02T04:16:07.211Z,0.80
2019-02-02T04:18:35.645Z,0.80
2019-02-02T04:21:13.014Z,0.80
2019-02-02T04:23:41.998Z,0.70
2019-02-02T04:26:10.475Z,0.70
2019-02-02T04:28:39.018Z,0.70
2019-02-02T04:31:07.438Z,0.60
2019-02-02T04:33:35.970Z,0.60
2019-02-02T04:36:04.860Z,0.60
2019-02-02T04:38:33.309Z,0.60
2019-02-02T04:41:01.811Z,0.60
2019-02-02T04:43:30.246Z,0.60
2019-02-02T04:45:58.671Z,0.60
2019-02-02T04:48:27.114Z,0.60
2019-02-02T04:50:55.547Z,0.60
2019-02-02T04:53:24.215Z,0.60
2019-02-02T04:55:52.653Z,0.60
2019-02-02T04:58:21.082Z,0.60
2019-02-02T05:00:49.687Z,0.60
2019-02-02T05:03:18.118Z,0.60
2019-02-02T05:05:46.791Z,0.60
2019-02-02T05:08:15.215Z,0.60
2019-02-02T05:10:43.650Z,0.60
2019-02-02T05:13:12.098Z,0.60
2019-02-02T05:15:40.514Z,0.70
2019-02-02T05:18:08.936Z,0.70
2019-02-02T05:20:37.371Z,0.70
2019-02-02T05:23:05.790Z,0.70
2019-02-02T05:25:34.234Z,0.80
2019-02-02T05:28:02.667Z,0.80
2019-02-02T05:30:31.727Z,0.70
2019-02-02T05:33:00.219Z,0.70
2019-02-02T05:35:28.657Z,0.70
2019-02-02T05:37:57.147Z,0.70
2019-02-02T05:40:25.898Z,0.70
2019-02-02T05:42:54.401Z,0.70
2019-02-02T05:45:24.074Z,0.60
2019-02-02T05:47:52.871Z,0.60
2019-02-02T05:50:23.262Z,0.50
2019-02-02T05:52:52.229Z,0.60
2019-02-02T05:55:22.494Z,0.60
2019-02-02T05:57:53.139Z,0.60
2019-02-02T06:00:31.158Z,0.60
2019-02-02T06:02:59.577Z,0.70
2019-02-02T06:05:28.035Z,0.70
2019-02-02T06:07:56.510Z,0.70
2019-02-02T06:10:24.938Z,0.70
2019-02-02T06:12:53.355Z,0.70
2019-02-02T06:15:21.790Z,0.80
2019-02-02T06:17:50.285Z,0.80
2019-02-02T06:20:18.774Z,0.80
2019-02-02T06:22:47.215Z,0.80
2019-02-02T06:25:16.525Z,0.80
2019-02-02T06:27:46.737Z,0.70
2019-02-02T06:30:29.694Z,0.70
2019-02-02T06:33:03.882Z,0.80
2019-02-02T06:35:32.036Z,0.70
2019-02-02T06:38:00.648Z,0.70
2019-02-02T06:40:29.158Z,0.70
2019-02-02T06:42:57.668Z,0.70
2019-02-02T06:45:28.975Z,0.70
2019-02-02T06:47:57.623Z,0.60
2019-02-02T06:50:26.147Z,0.60
2019-02-02T06:52:56.205Z,0.60
2019-02-02T06:55:24.741Z,0.70
2019-02-02T06:57:59.629Z,0.70
2019-02-02T07:00:37.335Z,0.70
2019-02-02T07:03:13.551Z,0.80
2019-02-02T07:05:42.000Z,0.80
2019-02-02T07:08:10.721Z,0.80
2019-02-02T07:10:39.203Z,0.90
2019-02-02T07:13:16.911Z,0.90
2019-02-02T07:15:48.862Z,1.00
2019-02-02T07:18:17.783Z,1.00
2019-02-02T07:20:46.264Z,1.00
2019-02-02T07:23:14.739Z,1.00
2019-02-02T07:25:43.202Z,1.00
2019-02-02T07:28:11.727Z,1.00
2019-02-02T07:30:40.213Z,1.00
2019-02-02T07:33:08.688Z,1.00
2019-02-02T07:35:37.418Z,1.00
2019-02-02T07:38:05.908Z,1.00
2019-02-02T07:40:34.395Z,0.90
2019-02-02T07:43:02.859Z,0.90
2019-02-02T07:45:32.383Z,0.90
2019-02-02T07:48:00.861Z,0.90
2019-02-02T07:50:29.389Z,0.90
2019-02-02T07:52:57.847Z,0.90
2019-02-02T07:55:26.574Z,0.90
2019-02-02T07:57:55.028Z,0.90
2019-02-02T08:00:26.295Z,0.80
2019-02-02T08:02:55.077Z,0.80
2019-02-02T08:05:23.702Z,0.80
2019-02-02T08:07:52.141Z,0.90
2019-02-02T08:10:20.747Z,0.90
2019-02-02T08:12:49.191Z,1.00
2019-02-02T08:15:20.667Z,1.00
2019-02-02T08:17:49.124Z,1.10
2019-02-02T08:20:17.858Z,1.20
2019-02-02T08:22:46.371Z,1.20
2019-02-02T08:25:15.966Z,1.30
2019-02-02T08:27:44.548Z,1.40
2019-02-02T08:30:24.895Z,1.40
2019-02-02T08:32:53.341Z,1.50
2019-02-02T08:35:21.899Z,1.60
2019-02-02T08:37:50.450Z,1.60
2019-02-02T08:40:21.246Z,1.60
2019-02-02T08:42:53.071Z,1.70
2019-02-02T08:45:30.797Z,1.80
2019-02-02T08:47:55.331Z,1.80
2019-02-02T08:50:29.528Z,1.80
2019-02-02T08:56:33.866Z,1.90
2019-02-02T08:59:39.695Z,1.90
2019-02-02T09:02:12.466Z,1.90
2019-02-02T09:04:41.006Z,1.90
2019-02-02T09:07:09.707Z,1.90
2019-02-02T09:09:38.481Z,2.00
2019-02-02T09:12:07.064Z,1.90
2019-02-02T09:14:35.590Z,1.90
2019-02-02T09:17:53.900Z,1.90
2019-02-02T09:20:25.683Z,1.90
2019-02-02T09:23:10.948Z,2.00
2019-02-02T09:29:47.739Z,2.00
2019-02-02T09:32:18.870Z,2.00
2019-02-02T09:45:14.990Z,2.30
2019-02-02T09:50:46.470Z,2.20
2019-02-02T09:53:15.157Z,2.20
2019-02-02T09:55:43.687Z,2.20
2019-02-02T09:58:12.270Z,2.20
2019-02-02T10:00:40.726Z,2.30
2019-02-02T10:03:09.239Z,2.40
2019-02-02T10:05:42.724Z,2.40
2019-02-02T10:08:11.246Z,2.40
2019-02-02T10:10:40.019Z,2.20
2019-02-02T10:13:08.968Z,2.10
2019-02-02T10:15:38.156Z,2.10
2019-02-02T10:18:06.916Z,2.00
2019-02-02T10:20:35.447Z,2.00
2019-02-02T10:23:06.991Z,2.00
2019-02-02T10:25:35.556Z,2.10
2019-02-02T10:28:04.476Z,2.10
2019-02-02T10:30:38.939Z,2.20
2019-02-02T10:33:08.124Z,2.20
2019-02-02T10:35:36.845Z,2.30
2019-02-02T10:38:05.978Z,2.30
2019-02-02T10:40:34.539Z,2.30
2019-02-02T10:43:03.021Z,2.30
2019-02-02T10:45:31.659Z,2.40
2019-02-02T10:48:00.406Z,2.60
2019-02-02T10:50:28.926Z,2.70
2019-02-02T10:52:57.512Z,2.90
2019-02-02T10:55:26.066Z,3.00
2019-02-02T10:57:54.594Z,3.00
2019-02-02T11:00:41.513Z,3.00
2019-02-02T11:03:10.116Z,3.00
2019-02-02T11:05:38.821Z,3.10
2019-02-02T11:08:07.853Z,3.00
2019-02-02T11:10:36.812Z,2.90
2019-02-02T11:13:06.085Z,2.70
2019-02-02T11:15:35.889Z,2.60
2019-02-02T11:18:05.187Z,2.60
2019-02-02T11:20:35.675Z,2.50
2019-02-02T11:23:18.499Z,2.50
2019-02-02T11:26:17.321Z,2.50
2019-02-02T11:29:43.308Z,2.50
2019-02-02T11:31:47.000Z,2.50
2019-02-02T11:34:20.775Z,2.40
2019-02-02T11:36:57.297Z,2.40
2019-02-02T11:39:29.356Z,2.30
2019-02-02T11:42:01.174Z,2.30
2019-02-02T11:44:36.305Z,2.40
2019-02-02T11:47:10.401Z,2.30
2019-02-02T11:49:44.632Z,2.30
2019-02-02T11:52:13.423Z,2.40
2019-02-02T11:54:53.552Z,2.60
2019-02-02T11:57:43.426Z,2.70
2019-02-02T12:00:30.705Z,2.90
2019-02-02T12:03:04.897Z,3.10
2019-02-02T12:05:47.873Z,3.30
2019-02-02T12:08:23.126Z,3.40
2019-02-02T12:10:52.534Z,3.60
2019-02-02T12:13:21.221Z,3.70
2019-02-02T12:15:49.671Z,3.70
2019-02-02T12:18:18.089Z,3.70
2019-02-02T12:21:01.645Z,3.70
2019-02-02T12:23:30.059Z,3.70
2019-02-02T12:26:06.563Z,3.70
2019-02-02T12:28:35.066Z,3.80
2019-02-02T12:31:03.562Z,4.00
2019-02-02T12:33:31.980Z,4.00
2019-02-02T12:36:00.411Z,4.10
2019-02-02T12:38:28.911Z,4.00
2019-02-02T12:40:59.634Z,3.80
2019-02-02T12:43:27.571Z,3.60
2019-02-02T12:45:56.295Z,3.60
2019-02-02T12:48:24.991Z,3.80
2019-02-02T12:50:53.422Z,4.10
2019-02-02T12:53:24.938Z,4.80
2019-02-02T12:55:53.619Z,5.40
2019-02-02T12:58:22.045Z,5.70
2019-02-02T13:00:50.476Z,5.80
2019-02-02T13:03:20.048Z,5.90
2019-02-02T13:05:50.434Z,5.90
2019-02-02T13:08:18.859Z,5.90
2019-02-02T13:10:47.363Z,5.90
2019-02-02T13:13:16.067Z,6.10
2019-02-02T13:15:44.486Z,6.40
2019-02-02T13:18:12.921Z,6.60
2019-02-02T13:20:41.335Z,6.80
2019-02-02T13:23:18.534Z,6.80
2019-02-02T13:25:46.959Z,6.60
2019-02-02T13:28:15.637Z,6.50
2019-02-02T13:30:44.062Z,6.40
2019-02-02T13:33:12.519Z,6.20
2019-02-02T13:35:41.437Z,6.10
2019-02-02T13:38:09.870Z,6.00
2019-02-02T13:40:38.384Z,6.10
2019-02-02T13:43:07.052Z,6.20
2019-02-02T13:45:55.498Z,6.40
2019-02-02T13:48:23.989Z,6.70
2019-02-02T13:50:52.461Z,7.00
2019-02-02T13:53:20.926Z,7.20
2019-02-02T13:55:49.352Z,7.00
2019-02-02T13:58:17.865Z,6.60
2019-02-02T14:00:46.297Z,6.40
2019-02-02T14:03:14.739Z,6.20
2019-02-02T14:05:44.806Z,6.10
2019-02-02T14:08:19.769Z,6.00
2019-02-02T14:10:48.431Z,6.00
2019-02-02T14:13:16.949Z,6.00
2019-02-02T14:15:45.450Z,6.00
2019-02-02T14:18:20.133Z,6.10
2019-02-02T14:20:50.438Z,6.10
2019-02-02T14:23:21.759Z,6.00
2019-02-02T14:25:52.093Z,5.70
2019-02-02T14:28:28.472Z,5.50
2019-02-02T14:30:54.272Z,5.20
2019-02-02T14:33:25.672Z,5.10
2019-02-02T14:35:57.649Z,5.00
2019-02-02T14:38:26.117Z,4.90
2019-02-02T14:40:54.545Z,4.80
2019-02-02T14:43:24.638Z,4.80
2019-02-02T14:45:54.286Z,4.80
2019-02-02T14:48:25.688Z,4.80
2019-02-02T14:50:54.241Z,4.80
2019-02-02T14:53:22.677Z,4.80
2019-02-02T14:55:51.114Z,4.70
2019-02-02T14:58:22.462Z,4.60
2019-02-02T15:00:54.189Z,4.50
2019-02-02T15:03:26.309Z,4.50
2019-02-02T15:05:57.647Z,4.40
2019-02-02T15:08:33.498Z,4.30
2019-02-02T15:11:01.924Z,4.20
2019-02-02T15:13:32.237Z,4.10
2019-02-02T15:16:00.649Z,4.00
2019-02-02T15:18:32.126Z,3.90
2019-02-02T15:21:00.557Z,3.80
2019-02-02T15:23:31.655Z,3.80
2019-02-02T15:26:03.477Z,3.70
2019-02-02T15:28:33.821Z,3.70
2019-02-02T15:31:02.257Z,3.70
2019-02-02T15:33:38.054Z,3.70
2019-02-02T15:36:11.631Z,3.70
2019-02-02T15:38:48.218Z,3.60
2019-02-02T15:41:18.288Z,3.60
2019-02-02T15:43:46.705Z,3.50
2019-02-02T15:46:15.143Z,3.50
2019-02-02T15:48:45.193Z,3.50
2019-02-02T15:51:14.390Z,3.50
2019-02-02T15:53:50.779Z,3.50
2019-02-02T15:56:18.654Z,3.40
2019-02-02T15:58:47.057Z,3.30
2019-02-02T16:01:16.597Z,3.20
2019-02-02T16:03:49.767Z,3.10
2019-02-02T16:06:18.529Z,3.10
2019-02-02T16:08:48.917Z,3.00
2019-02-02T16:11:20.316Z,2.90
2019-02-02T16:13:52.138Z,2.80
2019-02-02T16:16:23.825Z,2.80
2019-02-02T16:19:04.286Z,2.70
2019-02-02T16:21:35.667Z,2.70
2019-02-02T16:24:04.096Z,2.70
2019-02-02T16:26:44.910Z,2.70
2019-02-02T16:29:13.570Z,2.70
2019-02-02T16:31:47.657Z,2.70
2019-02-02T16:34:33.720Z,2.70
2019-02-02T16:37:04.246Z,2.70
2019-02-02T16:39:35.801Z,2.70
2019-02-02T16:42:07.260Z,2.70
2019-02-02T16:44:37.314Z,2.70
2019-02-02T16:47:08.830Z,2.70
2019-02-02T16:49:39.958Z,2.70
2019-02-02T16:52:14.018Z,2.70
2019-02-02T16:54:45.504Z,2.60
2019-02-02T16:57:18.052Z,2.60
2019-02-02T16:59:46.563Z,2.60
2019-02-02T17:02:15.023Z,2.60
2019-02-02T17:04:46.182Z,2.60
2019-02-02T17:07:14.616Z,2.60
2019-02-02T17:09:45.697Z,2.60
2019-02-02T17:12:14.107Z,2.60
2019-02-02T17:14:45.338Z,2.70
2019-02-02T17:17:16.805Z,2.70
2019-02-02T17:19:47.137Z,2.70
2019-02-02T17:22:18.712Z,2.70
2019-02-02T17:24:48.956Z,2.70
2019-02-02T17:27:21.766Z,2.60
2019-02-02T17:29:50.202Z,2.50
2019-02-02T17:32:22.921Z,2.40
2019-02-02T17:34:54.053Z,2.40
2019-02-02T17:37:28.383Z,2.30
2019-02-02T17:40:02.645Z,2.30
2019-02-02T17:42:43.463Z,2.30
2019-02-02T17:45:16.061Z,2.30
2019-02-02T17:47:44.818Z,2.30
2019-02-02T17:50:16.362Z,2.20
2019-02-02T17:52:44.772Z,2.20
2019-02-02T17:55:16.445Z,2.20
2019-02-02T17:57:47.757Z,2.20
2019-02-02T18:00:35.801Z,2.10
2019-02-02T18:03:05.269Z,2.10
2019-02-02T18:05:33.699Z,2.20
2019-02-02T18:08:03.754Z,2.20
2019-02-02T18:10:32.450Z,2.20
2019-02-02T18:13:17.689Z,2.10
2019-02-02T18:15:46.528Z,2.10
2019-02-02T18:18:21.210Z,2.10
2019-02-02T18:20:55.688Z,2.10
2019-02-02T18:23:25.730Z,2.10
2019-02-02T18:25:57.086Z,2.00
2019-02-02T18:28:34.582Z,2.10
2019-02-02T18:31:06.396Z,2.10
2019-02-02T18:33:36.017Z,2.10
2019-02-02T18:36:14.521Z,2.10
2019-02-02T18:38:47.573Z,2.00
2019-02-02T18:41:15.994Z,1.90
2019-02-02T18:43:47.870Z,1.80
2019-02-02T18:46:17.934Z,1.80
2019-02-02T18:48:47.998Z,1.70
2019-02-02T18:51:16.433Z,1.70
2019-02-02T18:53:47.669Z,1.70
2019-02-02T18:56:18.979Z,1.70
2019-02-02T18:58:59.394Z,1.70
2019-02-02T19:01:36.197Z,1.70
2019-02-02T19:04:09.796Z,1.70
2019-02-02T19:06:39.345Z,1.70
2019-02-02T19:09:11.021Z,1.70
2019-02-02T19:11:42.246Z,1.70
2019-02-02T19:14:13.469Z,1.70
2019-02-02T19:16:44.868Z,1.70
2019-02-02T19:19:13.278Z,1.70
2019-02-02T19:21:42.000Z,1.70
2019-02-02T19:24:16.155Z,1.80
2019-02-02T19:26:49.036Z,1.80
2019-02-02T19:29:17.453Z,1.80
2019-02-02T19:31:50.185Z,1.90
2019-02-02T19:34:18.701Z,1.90
2019-02-02T19:36:47.213Z,1.90
2019-02-02T19:39:18.526Z,1.90
2019-02-02T19:41:48.588Z,1.90
2019-02-02T19:44:18.655Z,1.90
2019-02-02T19:46:47.077Z,1.90
2019-02-02T19:49:15.505Z,1.90
2019-02-02T19:51:44.246Z,1.90
2019-02-02T19:54:12.656Z,1.90
2019-02-02T19:56:44.699Z,1.90
2019-02-02T19:59:14.909Z,1.90
2019-02-02T20:01:46.298Z,1.90
2019-02-02T20:04:14.722Z,1.90
2019-02-02T20:06:44.446Z,1.80
2019-02-02T20:09:18.423Z,1.80
2019-02-02T20:11:49.962Z,1.80
2019-02-02T20:14:21.033Z,1.80
2019-02-02T20:16:49.475Z,1.80
2019-02-02T20:19:17.979Z,1.80
2019-02-02T20:21:46.464Z,1.80
2019-02-02T20:24:24.172Z,1.70
2019-02-02T20:26:55.655Z,1.70
2019-02-02T20:29:24.064Z,1.70
2019-02-02T20:31:58.640Z,1.60
2019-02-02T20:34:29.670Z,1.60
2019-02-02T20:37:04.048Z,1.60
2019-02-02T20:39:34.374Z,1.60
2019-02-02T20:42:04.347Z,1.60
2019-02-02T20:44:35.939Z,1.50
2019-02-02T20:47:05.029Z,1.40
2019-02-02T20:49:36.633Z,1.40
2019-02-02T20:52:05.232Z,1.30
2019-02-02T20:54:35.198Z,1.30
2019-02-02T20:57:03.961Z,1.30
2019-02-02T20:59:37.777Z,1.30
2019-02-02T21:02:06.245Z,1.30
2019-02-02T21:04:36.317Z,1.40
2019-02-02T21:07:10.418Z,1.40
2019-02-02T21:09:40.487Z,1.50
2019-02-02T21:12:08.896Z,1.60
2019-02-02T21:14:39.295Z,1.60
2019-02-02T21:17:08.697Z,1.70
2019-02-02T21:19:38.834Z,1.70
2019-02-02T21:22:10.494Z,1.70
2019-02-02T21:24:41.404Z,1.80
2019-02-02T21:27:10.497Z,1.80
2019-02-02T21:29:42.405Z,1.80
2019-02-02T21:32:10.899Z,1.80
2019-02-02T21:34:47.459Z,1.80
2019-02-02T21:37:15.878Z,1.80
2019-02-02T21:39:47.343Z,1.80
2019-02-02T21:42:17.404Z,1.80
2019-02-02T21:44:48.444Z,1.80
2019-02-02T21:47:16.859Z,1.80
2019-02-02T21:49:51.101Z,1.90
2019-02-02T21:52:19.525Z,1.90
2019-02-02T21:54:47.956Z,1.90
2019-02-02T21:57:19.066Z,1.90
2019-02-02T21:59:49.136Z,1.90
2019-02-02T22:02:17.621Z,1.90
2019-02-02T22:04:47.680Z,1.90
2019-02-02T22:07:16.377Z,1.90
2019-02-02T22:09:44.792Z,1.90
2019-02-02T22:12:18.882Z,1.90
2019-02-02T22:14:53.273Z,1.90
2019-02-02T22:17:21.676Z,1.90
2019-02-02T22:20:11.302Z,1.90
2019-02-02T22:22:52.881Z,1.90
2019-02-02T22:25:23.698Z,1.90
2019-02-02T22:27:52.132Z,1.90
2019-02-02T22:30:32.664Z,1.90
2019-02-02T22:33:04.246Z,1.90
2019-02-02T22:35:33.511Z,2.00
2019-02-02T22:38:02.060Z,2.00
2019-02-02T22:40:35.256Z,2.00
2019-02-02T22:43:06.932Z,2.00
2019-02-02T22:45:38.303Z,2.00
2019-02-02T22:48:08.435Z,2.00
2019-02-02T22:50:39.693Z,2.00
2019-02-02T22:53:08.106Z,2.00
2019-02-02T22:55:36.538Z,2.00
2019-02-02T22:58:12.531Z,2.00
2019-02-02T23:00:51.721Z,2.00
2019-02-02T23:03:35.436Z,2.00
2019-02-02T23:06:39.556Z,2.00
2019-02-02T23:09:32.321Z,2.10
2019-02-02T23:12:19.866Z,2.00
2019-02-02T23:15:13.454Z,2.00
2019-02-02T23:17:47.891Z,1.90
2019-02-02T23:20:16.307Z,1.80
2019-02-02T23:22:49.105Z,1.70
2019-02-02T23:25:20.200Z,1.60
2019-02-02T23:27:51.338Z,1.60
2019-02-02T23:30:28.059Z,1.50
2019-02-02T23:32:57.929Z,1.50
2019-02-02T23:35:29.299Z,1.50
2019-02-02T23:38:06.379Z,1.50
2019-02-02T23:40:34.795Z,1.50
2019-02-02T23:43:05.971Z,1.50
2019-02-02T23:45:34.407Z,1.60
2019-02-02T23:48:02.910Z,1.60
2019-02-02T23:50:31.334Z,1.70
2019-02-02T23:53:06.565Z,1.70
2019-02-02T23:55:35.048Z,1.70
2019-02-02T23:58:08.334Z,1.70
